ADDS METAR Data INFO
IDs: Format: Raw Decoded Include TAF

Data at: 2337 UTC 25 Feb 2018

KBEH 252253Z AUTO 23016KT CLR 05/M06 A3000 RMK AO2 PK WND 26026/2240 SLP164 T00501056 $
KBEH 252153Z AUTO 23018G25KT CLR 06/M04 A2998 RMK AO2 PK WND 23027/2116 SLP155 T00611044 $
KBEH 252053Z AUTO 24016G27KT CLR 06/M05 A2996 RMK AO2 PK WND 23027/2045 SLP149 T00561050 53012 $
KBEH 251953Z AUTO 24020G29KT CLR 05/M06 A2995 RMK AO2 PK WND 24030/1928 SLP145 T00501056 $
KBEH 251853Z AUTO 23020G29KT CLR 05/M04 A2993 RMK AO2 PK WND 23031/1812 SLP138 T00501039 $
KBEH 251753Z AUTO 22019G26KT CLR 05/M03 A2992 RMK AO2 PK WND 23032/1655 SLP137 T00501028 10050 20011 51026 $
KBEH 251653Z AUTO 23023G30KT 10SM CLR 04/M03 A2991 RMK AO2 PK WND 23035/1643 SLP131 T00391033 $
KBEH 251553Z AUTO 24022G31KT 10SM CLR 03/M03 A2987 RMK AO2 PK WND 25031/1547 SLP120 T00331028 $
KBEH 251534Z AUTO 23023G31KT 10SM SCT029 03/M02 A2986 RMK AO2 PK WND 25031/1529 T00331022 $
KBEH 251519Z AUTO 23021G28KT 10SM BKN029 03/M02 A2985 RMK AO2 PK WND 23028/1517 T00331022 $
KBEH 251453Z AUTO 23022G29KT 9SM BKN031 03/M02 A2984 RMK AO2 PK WND 23030/1442 SLP111 T00281022 53033 $
KBEH 251421Z AUTO 24021G27KT 9SM SCT028 02/M03 A2982 RMK AO2 PK WND 24029/1358 T00221028 $
KBEH 251353Z AUTO 24016G28KT 9SM OVC029 02/M03 A2981 RMK AO2 PK WND 23030/1301 SLP100 T00171033 $
KBEH 251253Z AUTO 24021G32KT 10SM OVC024 01/M03 A2978 RMK AO2 PK WND 25033/1211 SLP087 T00111033 $
KBEH 251153Z AUTO 24018G26KT 10SM OVC023 02/M02 A2974 RMK AO2 PK WND 25034/1113 SLP077 60001 70001 T00171022 10100 20017 51058 $
KBEH 251053Z AUTO 25021G33KT 10SM OVC023 02/M02 A2969 RMK AO2 PK WND 24033/1051 SLP059 T00221022 $
KBEH 250953Z AUTO 25025G32KT 10SM SCT014 OVC022 02/M01 A2965 RMK AO2 PK WND 26036/0920 PRESRR SLP045 T00221006 $
KBEH 250932Z AUTO 25025G34KT 10SM SCT011 OVC020 03/00 A2962 RMK AO2 PK WND 26036/0920 T00330000 $
KBEH 250917Z AUTO 25025G35KT 10SM BKN011 OVC019 03/01 A2961 RMK AO2 PK WND 26036/0903 PRESRR T00330011 $
KBEH 250853Z AUTO 25028G38KT 10SM 04/02 A2957 RMK AO2 PK WND 26038/0845 SLP017 60001 T00440017 $
KBEH 250832Z AUTO 25028G36KT 10SM FEW008 BKN014 OVC031 06/04 A2954 RMK AO2 PK WND 25037/0816 WSHFT 0740 PRESRR T00610039 $
KBEH 250813Z AUTO 25026G34KT 10SM SCT008 BKN016 OVC031 08/07 A2950 RMK AO2 PK WND 24034/0810 WSHFT 0740 PRESRR T00830067 $
KBEH 250755Z AUTO 23021G30KT BKN010 OVC017 10/08 A2947 RMK AO2 PK WND 23029/0754 WSHFT 0740 CIG 006V013 T01000083 $
KBEH 250753Z AUTO 24022G30KT 8SM BKN008 OVC017 10/08 A2947 RMK AO2 PK WND 25030/0751 WSHFT 0737 RAB0657E08B21E53 CIG 006V012 SLP982 P0001 T01000083 $
KBEH 250751Z AUTO 23019G30KT 7SM -RA BKN008 OVC015 09/08 A2947 RMK AO2 PK WND 25030/0751 WSHFT 0737 RAB0657E08B21 CIG 006V011 P0001 $
KBEH 250712Z AUTO 18012G21KT 4SM BR OVC006 08/06 A2945 RMK AO2 RAB0657E08 P0000 T00780061 $
KBEH 250653Z AUTO 14014G18KT 2 1/2SM BR OVC005 07/06 A2944 RMK AO2 SLP971 T00720061 $
KBEH 250553Z AUTO 13015G23KT 7SM OVC007 07/05 A2948 RMK AO2 PK WND 12029/0502 PRESFR SLP986 T00670050 10067 20044 56057 $
KBEH 250453Z AUTO 12016G23KT OVC008 06/04 A2952 RMK AO2 SLP001 T00610039 400720011 $
KBEH 250402Z AUTO 12016G26KT 10SM OVC009 06/03 A2958 RMK AO2 PRESFR T00560028 $
KBEH 250353Z AUTO 12018G26KT 10SM OVC010 06/03 A2959 RMK AO2 PK WND 11027/0308 PRESFR SLP024 T00560028 $
KBEH 250253Z AUTO 12018G25KT 10SM OVC012 05/02 A2965 RMK AO2 PK WND 10032/0204 PRESFR SLP045 T00500017 58067 $
KBEH 250153Z AUTO 12017G23KT OVC013 05/02 A2973 RMK AO2 PK WND 10031/0131 SLP070 T00500017 $
KBEH 250138Z AUTO 11020G31KT 10SM OVC014 05/02 A2974 RMK AO2 PK WND 10031/0131 T00500017 $
KBEH 250053Z AUTO 11019G23KT 10SM OVC016 05/02 A2980 RMK AO2 PRESFR SLP096 T00500017 $
KBEH 250025Z AUTO 11014G23KT 10SM SCT020 OVC029 06/02 A2982 RMK AO2 T00560017 $
KBEH 242353Z AUTO 11016G25KT FEW016 SCT029 BKN060 06/02 A2985 RMK AO2 PK WND 11027/2332 SLP114 T00560017 10072 20056 58033 $
KBEH 242253Z AUTO 11013KT OVC017 06/02 A2990 RMK AO2 SLP130 T00560017 $
KBEH 242153Z AUTO 10013KT OVC017 06/02 A2993 RMK AO2 SLP140 T00610022 $
KBEH 242053Z AUTO 10014G19KT BKN018 OVC075 07/02 A2995 RMK AO2 SLP148 T00670022 56041 $
KBEH 241953Z AUTO 12014G21KT 10SM OVC018 07/02 A2999 RMK AO2 SLP158 T00720022 $
KBEH 241853Z AUTO 11012KT OVC019 07/01 A3003 RMK AO2 SLP174 T00670011 $
KBEH 241753Z AUTO 11012G19KT BKN018 OVC095 07/02 A3007 RMK AO2 SLP188 T00670017 10067 20011 58036 $
KBEH 241722Z AUTO 12013KT 10SM BKN018 BKN095 06/01 A3010 RMK AO2 T00610011
KBEH 241653Z AUTO 10009KT 10SM SCT017 OVC095 05/01 A3012 RMK AO2 SLP206 T00500006
KBEH 241553Z AUTO 09009KT 8SM SCT017 OVC100 03/M01 A3016 RMK AO2 SLP218 T00331006
KBEH 241517Z AUTO 11009KT 8SM BKN017 OVC100 03/M01 A3018 RMK AO2 T00281011
KBEH 241453Z AUTO 09007KT 8SM OVC100 02/M01 A3018 RMK AO2 SLP227 T00221011 58003
KBEH 241353Z AUTO 08006KT 8SM OVC100 02/M02 A3019 RMK AO2 SLP230 T00171017
KBEH 241253Z AUTO 07004KT 8SM OVC100 02/M02 A3020 RMK AO2 SLP231 T00171017
KBEH 241153Z AUTO 04005KT 9SM OVC100 01/M02 A3019 RMK AO2 SLP230 70008 T00111017 10028 20011 58012